sensor_id;sensor_type;location;lat;lon;timestamp;temperature;humidity
54272;DHT22;40184;53.362;5.216;2023-02-12T00:02:07;7.30;99.90
54272;DHT22;40184;53.362;5.216;2023-02-12T00:04:33;7.10;99.90
54272;DHT22;40184;53.362;5.216;2023-02-12T00:06:59;7.20;99.90
54272;DHT22;40184;53.362;5.216;2023-02-12T00:09:24;7.20;99.90
54272;DHT22;40184;53.362;5.216;2023-02-12T00:11:50;7.30;99.90
54272;DHT22;40184;53.362;5.216;2023-02-12T00:14:16;7.70;99.90
54272;DHT22;40184;53.362;5.216;2023-02-12T00:16:42;7.10;99.90
54272;DHT22;40184;53.362;5.216;2023-02-12T00:19:08;7.30;99.90
54272;DHT22;40184;53.362;5.216;2023-02-12T00:21:34;7.40;99.90
54272;DHT22;40184;53.362;5.216;2023-02-12T00:24:01;7.00;99.90
54272;DHT22;40184;53.362;5.216;2023-02-12T00:26:26;7.30;99.90
54272;DHT22;40184;53.362;5.216;2023-02-12T00:28:53;7.00;99.90
54272;DHT22;40184;53.362;5.216;2023-02-12T00:31:22;7.50;99.90
54272;DHT22;40184;53.362;5.216;2023-02-12T00:33:48;7.00;99.90
54272;DHT22;40184;53.362;5.216;2023-02-12T00:36:17;7.30;99.90
54272;DHT22;40184;53.362;5.216;2023-02-12T00:38:43;7.20;99.90
54272;DHT22;40184;53.362;5.216;2023-02-12T00:41:10;7.50;99.90
54272;DHT22;40184;53.362;5.216;2023-02-12T00:43:36;7.40;99.90
54272;DHT22;40184;53.362;5.216;2023-02-12T00:46:02;6.90;99.90
54272;DHT22;40184;53.362;5.216;2023-02-12T00:48:27;6.90;99.90
54272;DHT22;40184;53.362;5.216;2023-02-12T00:50:53;6.80;99.90
54272;DHT22;40184;53.362;5.216;2023-02-12T00:53:19;7.30;99.90
54272;DHT22;40184;53.362;5.216;2023-02-12T00:55:44;7.00;99.90
54272;DHT22;40184;53.362;5.216;2023-02-12T00:58:10;7.30;99.90
54272;DHT22;40184;53.362;5.216;2023-02-12T01:00:36;7.40;99.90
54272;DHT22;40184;53.362;5.216;2023-02-12T01:03:03;7.10;99.90
54272;DHT22;40184;53.362;5.216;2023-02-12T01:05:28;7.20;99.90
54272;DHT22;40184;53.362;5.216;2023-02-12T01:07:55;7.40;99.90
54272;DHT22;40184;53.362;5.216;2023-02-12T01:10:21;7.20;99.90
54272;DHT22;40184;53.362;5.216;2023-02-12T01:12:47;7.30;99.90
54272;DHT22;40184;53.362;5.216;2023-02-12T01:15:14;6.90;99.90
54272;DHT22;40184;53.362;5.216;2023-02-12T01:17:40;7.30;99.90
54272;DHT22;40184;53.362;5.216;2023-02-12T01:20:06;7.00;99.90
54272;DHT22;40184;53.362;5.216;2023-02-12T01:22:36;7.20;99.90
54272;DHT22;40184;53.362;5.216;2023-02-12T01:25:03;7.30;99.90
54272;DHT22;40184;53.362;5.216;2023-02-12T01:27:29;6.80;99.90
54272;DHT22;40184;53.362;5.216;2023-02-12T01:29:55;7.00;99.90
54272;DHT22;40184;53.362;5.216;2023-02-12T01:32:21;7.00;99.90
54272;DHT22;40184;53.362;5.216;2023-02-12T01:34:47;7.20;99.90
54272;DHT22;40184;53.362;5.216;2023-02-12T01:37:13;7.00;99.90
54272;DHT22;40184;53.362;5.216;2023-02-12T01:39:39;7.10;99.90
54272;DHT22;40184;53.362;5.216;2023-02-12T01:42:04;7.30;99.90
54272;DHT22;40184;53.362;5.216;2023-02-12T01:44:33;7.40;99.90
54272;DHT22;40184;53.362;5.216;2023-02-12T01:47:03;7.00;99.90
54272;DHT22;40184;53.362;5.216;2023-02-12T01:49:42;7.40;99.90
54272;DHT22;40184;53.362;5.216;2023-02-12T01:52:18;6.90;99.90
54272;DHT22;40184;53.362;5.216;2023-02-12T01:54:46;6.90;99.90
54272;DHT22;40184;53.362;5.216;2023-02-12T01:57:13;7.30;99.90
54272;DHT22;40184;53.362;5.216;2023-02-12T01:59:42;6.80;99.90
54272;DHT22;40184;53.362;5.216;2023-02-12T02:02:08;7.20;99.90
54272;DHT22;40184;53.362;5.216;2023-02-12T02:04:49;7.10;99.90
54272;DHT22;40184;53.362;5.216;2023-02-12T02:07:16;7.30;99.90
54272;DHT22;40184;53.362;5.216;2023-02-12T02:09:42;7.20;99.90
54272;DHT22;40184;53.362;5.216;2023-02-12T02:12:08;7.30;99.90
54272;DHT22;40184;53.362;5.216;2023-02-12T02:14:56;6.90;99.90
54272;DHT22;40184;53.362;5.216;2023-02-12T02:22:42;7.40;99.90
54272;DHT22;40184;53.362;5.216;2023-02-12T02:28:23;7.20;99.90
54272;DHT22;40184;53.362;5.216;2023-02-12T02:31:03;6.90;99.90
54272;DHT22;40184;53.362;5.216;2023-02-12T02:33:54;7.40;99.90
54272;DHT22;40184;53.362;5.216;2023-02-12T02:42:16;6.70;99.90
54272;DHT22;40184;53.362;5.216;2023-02-12T02:44:57;7.40;99.90
54272;DHT22;40184;53.362;5.216;2023-02-12T02:50:24;6.70;99.90
54272;DHT22;40184;53.362;5.216;2023-02-12T02:53:10;7.10;99.90
54272;DHT22;40184;53.362;5.216;2023-02-12T02:55:48;6.90;99.90
54272;DHT22;40184;53.362;5.216;2023-02-12T02:58:22;7.10;99.90
54272;DHT22;40184;53.362;5.216;2023-02-12T03:00:57;6.90;99.90
54272;DHT22;40184;53.362;5.216;2023-02-12T03:03:32;6.70;99.90
54272;DHT22;40184;53.362;5.216;2023-02-12T03:06:03;7.10;99.90
54272;DHT22;40184;53.362;5.216;2023-02-12T03:08:38;7.20;99.90
54272;DHT22;40184;53.362;5.216;2023-02-12T03:11:27;7.20;99.90
54272;DHT22;40184;53.362;5.216;2023-02-12T03:19:16;7.00;99.90
54272;DHT22;40184;53.362;5.216;2023-02-12T03:21:56;7.20;99.90
54272;DHT22;40184;53.362;5.216;2023-02-12T03:24:34;7.30;99.90
54272;DHT22;40184;53.362;5.216;2023-02-12T03:27:10;7.00;99.90
54272;DHT22;40184;53.362;5.216;2023-02-12T03:29:37;7.40;99.90
54272;DHT22;40184;53.362;5.216;2023-02-12T03:34:48;6.80;99.90
54272;DHT22;40184;53.362;5.216;2023-02-12T03:50:52;7.40;99.90
54272;DHT22;40184;53.362;5.216;2023-02-12T03:53:18;7.00;99.90
54272;DHT22;40184;53.362;5.216;2023-02-12T03:55:47;7.00;99.90
54272;DHT22;40184;53.362;5.216;2023-02-12T03:58:18;7.50;99.90
54272;DHT22;40184;53.362;5.216;2023-02-12T04:00:45;7.10;99.90
54272;DHT22;40184;53.362;5.216;2023-02-12T04:03:11;7.40;99.90
54272;DHT22;40184;53.362;5.216;2023-02-12T04:05:37;7.40;99.90
54272;DHT22;40184;53.362;5.216;2023-02-12T04:08:06;7.00;99.90
54272;DHT22;40184;53.362;5.216;2023-02-12T04:16:21;7.60;99.90
54272;DHT22;40184;53.362;5.216;2023-02-12T04:18:49;7.40;99.90
54272;DHT22;40184;53.362;5.216;2023-02-12T04:21:58;7.70;99.90
54272;DHT22;40184;53.362;5.216;2023-02-12T04:27:32;7.60;99.90
54272;DHT22;40184;53.362;5.216;2023-02-12T04:30:04;7.60;99.90
54272;DHT22;40184;53.362;5.216;2023-02-12T04:32:39;7.10;99.90
54272;DHT22;40184;53.362;5.216;2023-02-12T04:38:12;7.40;99.90
54272;DHT22;40184;53.362;5.216;2023-02-12T04:40:40;7.30;99.90
54272;DHT22;40184;53.362;5.216;2023-02-12T04:43:07;7.30;99.90
54272;DHT22;40184;53.362;5.216;2023-02-12T04:45:34;7.70;99.90
54272;DHT22;40184;53.362;5.216;2023-02-12T04:48:00;7.60;99.90
54272;DHT22;40184;53.362;5.216;2023-02-12T04:50:29;7.60;99.90
54272;DHT22;40184;53.362;5.216;2023-02-12T04:53:01;7.40;99.90
54272;DHT22;40184;53.362;5.216;2023-02-12T04:55:26;7.80;99.90
54272;DHT22;40184;53.362;5.216;2023-02-12T04:57:52;7.90;99.90
54272;DHT22;40184;53.362;5.216;2023-02-12T05:00:18;7.60;99.90
54272;DHT22;40184;53.362;5.216;2023-02-12T05:02:44;7.50;99.90
54272;DHT22;40184;53.362;5.216;2023-02-12T05:05:09;7.70;99.90
54272;DHT22;40184;53.362;5.216;2023-02-12T05:07:35;7.70;99.90
54272;DHT22;40184;53.362;5.216;2023-02-12T05:10:01;7.40;99.90
54272;DHT22;40184;53.362;5.216;2023-02-12T05:12:27;7.50;99.90
54272;DHT22;40184;53.362;5.216;2023-02-12T05:14:52;7.70;99.90
54272;DHT22;40184;53.362;5.216;2023-02-12T05:17:21;7.70;99.90
54272;DHT22;40184;53.362;5.216;2023-02-12T05:19:47;7.70;99.90
54272;DHT22;40184;53.362;5.216;2023-02-12T05:22:13;7.80;99.90
54272;DHT22;40184;53.362;5.216;2023-02-12T05:24:38;7.50;99.90
54272;DHT22;40184;53.362;5.216;2023-02-12T05:27:04;7.80;99.90
54272;DHT22;40184;53.362;5.216;2023-02-12T05:29:30;7.60;99.90
54272;DHT22;40184;53.362;5.216;2023-02-12T05:31:56;7.40;99.90
54272;DHT22;40184;53.362;5.216;2023-02-12T05:34:21;7.50;99.90
54272;DHT22;40184;53.362;5.216;2023-02-12T05:36:47;7.50;99.90
54272;DHT22;40184;53.362;5.216;2023-02-12T05:39:13;7.70;99.90
54272;DHT22;40184;53.362;5.216;2023-02-12T05:41:39;7.70;99.90
54272;DHT22;40184;53.362;5.216;2023-02-12T05:44:04;7.30;99.90
54272;DHT22;40184;53.362;5.216;2023-02-12T05:46:31;7.30;99.90
54272;DHT22;40184;53.362;5.216;2023-02-12T05:48:57;7.20;99.90
54272;DHT22;40184;53.362;5.216;2023-02-12T05:51:24;7.70;99.90
54272;DHT22;40184;53.362;5.216;2023-02-12T05:53:52;7.20;99.90
54272;DHT22;40184;53.362;5.216;2023-02-12T05:56:28;7.80;99.90
54272;DHT22;40184;53.362;5.216;2023-02-12T05:59:01;7.60;99.90
54272;DHT22;40184;53.362;5.216;2023-02-12T06:01:32;7.70;99.90
54272;DHT22;40184;53.362;5.216;2023-02-12T06:03:59;7.30;99.90
54272;DHT22;40184;53.362;5.216;2023-02-12T06:06:26;7.80;99.90
54272;DHT22;40184;53.362;5.216;2023-02-12T06:08:52;7.90;99.90
54272;DHT22;40184;53.362;5.216;2023-02-12T06:11:18;8.00;99.90
54272;DHT22;40184;53.362;5.216;2023-02-12T06:13:45;7.90;99.90
54272;DHT22;40184;53.362;5.216;2023-02-12T06:18:42;8.00;99.90
54272;DHT22;40184;53.362;5.216;2023-02-12T06:21:07;8.00;99.90
54272;DHT22;40184;53.362;5.216;2023-02-12T06:23:33;7.60;99.90
54272;DHT22;40184;53.362;5.216;2023-02-12T06:25:58;8.00;99.90
54272;DHT22;40184;53.362;5.216;2023-02-12T06:28:24;7.70;99.90
54272;DHT22;40184;53.362;5.216;2023-02-12T06:30:50;7.90;99.90
54272;DHT22;40184;53.362;5.216;2023-02-12T06:33:15;7.90;99.90
54272;DHT22;40184;53.362;5.216;2023-02-12T06:35:41;7.60;99.90
54272;DHT22;40184;53.362;5.216;2023-02-12T06:38:07;7.90;99.90
54272;DHT22;40184;53.362;5.216;2023-02-12T06:40:33;7.70;99.90
54272;DHT22;40184;53.362;5.216;2023-02-12T06:42:59;8.10;99.90
54272;DHT22;40184;53.362;5.216;2023-02-12T06:45:25;7.80;99.90
54272;DHT22;40184;53.362;5.216;2023-02-12T06:47:51;8.00;99.90
54272;DHT22;40184;53.362;5.216;2023-02-12T06:50:16;7.70;99.90
54272;DHT22;40184;53.362;5.216;2023-02-12T06:52:42;8.20;99.90
54272;DHT22;40184;53.362;5.216;2023-02-12T06:55:08;7.70;99.90
54272;DHT22;40184;53.362;5.216;2023-02-12T06:57:33;7.70;99.90
54272;DHT22;40184;53.362;5.216;2023-02-12T06:59:59;7.60;99.90
54272;DHT22;40184;53.362;5.216;2023-02-12T07:02:25;8.00;99.90
54272;DHT22;40184;53.362;5.216;2023-02-12T07:04:50;7.90;99.90
54272;DHT22;40184;53.362;5.216;2023-02-12T07:07:16;7.80;99.90
54272;DHT22;40184;53.362;5.216;2023-02-12T07:09:41;7.90;99.90
54272;DHT22;40184;53.362;5.216;2023-02-12T07:12:07;7.70;99.90
54272;DHT22;40184;53.362;5.216;2023-02-12T07:14:33;7.60;99.90
54272;DHT22;40184;53.362;5.216;2023-02-12T07:16:59;8.10;99.90
54272;DHT22;40184;53.362;5.216;2023-02-12T07:19:28;7.50;99.90
54272;DHT22;40184;53.362;5.216;2023-02-12T07:21:54;7.80;99.90
54272;DHT22;40184;53.362;5.216;2023-02-12T07:24:20;7.60;99.90
54272;DHT22;40184;53.362;5.216;2023-02-12T07:26:46;7.60;99.90
54272;DHT22;40184;53.362;5.216;2023-02-12T07:29:11;7.60;99.90
54272;DHT22;40184;53.362;5.216;2023-02-12T07:31:37;8.20;99.90
54272;DHT22;40184;53.362;5.216;2023-02-12T07:34:03;7.90;99.90
54272;DHT22;40184;53.362;5.216;2023-02-12T07:36:31;7.60;99.90
54272;DHT22;40184;53.362;5.216;2023-02-12T07:38:57;7.80;99.90
54272;DHT22;40184;53.362;5.216;2023-02-12T07:41:32;8.20;99.90
54272;DHT22;40184;53.362;5.216;2023-02-12T07:44:07;8.20;99.90
54272;DHT22;40184;53.362;5.216;2023-02-12T07:46:43;7.80;99.90
54272;DHT22;40184;53.362;5.216;2023-02-12T07:49:14;8.30;99.90
54272;DHT22;40184;53.362;5.216;2023-02-12T07:51:40;8.10;99.90
54272;DHT22;40184;53.362;5.216;2023-02-12T07:54:06;8.10;99.90
54272;DHT22;40184;53.362;5.216;2023-02-12T07:56:34;8.30;99.90
54272;DHT22;40184;53.362;5.216;2023-02-12T07:59:05;8.20;99.90
54272;DHT22;40184;53.362;5.216;2023-02-12T08:01:36;7.80;99.90
54272;DHT22;40184;53.362;5.216;2023-02-12T08:04:05;8.10;99.90
54272;DHT22;40184;53.362;5.216;2023-02-12T08:06:33;8.20;99.90
54272;DHT22;40184;53.362;5.216;2023-02-12T08:09:01;8.40;99.90
54272;DHT22;40184;53.362;5.216;2023-02-12T08:11:28;7.90;99.90
54272;DHT22;40184;53.362;5.216;2023-02-12T08:13:55;8.30;99.90
54272;DHT22;40184;53.362;5.216;2023-02-12T08:16:23;8.40;99.90
54272;DHT22;40184;53.362;5.216;2023-02-12T08:18:50;8.20;99.90
54272;DHT22;40184;53.362;5.216;2023-02-12T08:21:19;8.00;99.90
54272;DHT22;40184;53.362;5.216;2023-02-12T08:23:46;8.30;99.90
54272;DHT22;40184;53.362;5.216;2023-02-12T08:28:43;8.60;99.90
54272;DHT22;40184;53.362;5.216;2023-02-12T08:31:17;7.90;99.90
54272;DHT22;40184;53.362;5.216;2023-02-12T08:33:48;8.60;99.90
54272;DHT22;40184;53.362;5.216;2023-02-12T08:36:17;8.00;99.90
54272;DHT22;40184;53.362;5.216;2023-02-12T08:38:44;8.10;99.90
54272;DHT22;40184;53.362;5.216;2023-02-12T08:41:20;8.60;99.90
54272;DHT22;40184;53.362;5.216;2023-02-12T08:43:46;8.30;99.90
54272;DHT22;40184;53.362;5.216;2023-02-12T08:46:14;8.60;99.90
54272;DHT22;40184;53.362;5.216;2023-02-12T08:48:41;8.60;99.90
54272;DHT22;40184;53.362;5.216;2023-02-12T08:51:18;8.50;99.90
54272;DHT22;40184;53.362;5.216;2023-02-12T08:53:46;8.60;99.90
54272;DHT22;40184;53.362;5.216;2023-02-12T08:56:13;8.10;99.90
54272;DHT22;40184;53.362;5.216;2023-02-12T08:58:40;8.40;99.90
54272;DHT22;40184;53.362;5.216;2023-02-12T09:01:10;8.50;99.90
54272;DHT22;40184;53.362;5.216;2023-02-12T09:03:36;8.20;99.90
54272;DHT22;40184;53.362;5.216;2023-02-12T09:06:03;8.50;99.90
54272;DHT22;40184;53.362;5.216;2023-02-12T09:08:29;8.40;99.90
54272;DHT22;40184;53.362;5.216;2023-02-12T09:10:55;8.50;99.90
54272;DHT22;40184;53.362;5.216;2023-02-12T09:13:21;8.40;99.90
54272;DHT22;40184;53.362;5.216;2023-02-12T09:15:46;8.30;99.90
54272;DHT22;40184;53.362;5.216;2023-02-12T09:18:13;8.40;99.90
54272;DHT22;40184;53.362;5.216;2023-02-12T09:20:41;8.40;99.90
54272;DHT22;40184;53.362;5.216;2023-02-12T09:23:08;8.60;99.90
54272;DHT22;40184;53.362;5.216;2023-02-12T09:25:34;8.50;99.90
54272;DHT22;40184;53.362;5.216;2023-02-12T09:28:03;8.50;99.90
54272;DHT22;40184;53.362;5.216;2023-02-12T09:30:29;8.40;99.90
54272;DHT22;40184;53.362;5.216;2023-02-12T09:32:55;8.20;99.90
54272;DHT22;40184;53.362;5.216;2023-02-12T09:35:22;8.70;99.90
54272;DHT22;40184;53.362;5.216;2023-02-12T09:37:47;8.20;99.90
54272;DHT22;40184;53.362;5.216;2023-02-12T09:45:57;8.80;99.90
54272;DHT22;40184;53.362;5.216;2023-02-12T09:48:45;8.60;99.90
54272;DHT22;40184;53.362;5.216;2023-02-12T09:51:13;8.60;99.90
54272;DHT22;40184;53.362;5.216;2023-02-12T09:53:43;8.30;99.90
54272;DHT22;40184;53.362;5.216;2023-02-12T09:56:15;8.70;99.90
54272;DHT22;40184;53.362;5.216;2023-02-12T09:59:00;8.20;99.90
54272;DHT22;40184;53.362;5.216;2023-02-12T10:01:27;8.30;99.90
54272;DHT22;40184;53.362;5.216;2023-02-12T10:03:54;8.30;99.90
54272;DHT22;40184;53.362;5.216;2023-02-12T10:06:25;8.30;99.90
54272;DHT22;40184;53.362;5.216;2023-02-12T10:12:03;8.80;99.90
54272;DHT22;40184;53.362;5.216;2023-02-12T10:25:29;8.70;99.90
54272;DHT22;40184;53.362;5.216;2023-02-12T10:27:55;8.80;99.90
54272;DHT22;40184;53.362;5.216;2023-02-12T10:30:34;8.50;99.90
54272;DHT22;40184;53.362;5.216;2023-02-12T10:33:15;9.20;99.90
54272;DHT22;40184;53.362;5.216;2023-02-12T10:35:50;9.10;99.90
54272;DHT22;40184;53.362;5.216;2023-02-12T10:38:21;9.20;99.90
54272;DHT22;40184;53.362;5.216;2023-02-12T10:40:49;8.80;99.90
54272;DHT22;40184;53.362;5.216;2023-02-12T10:43:15;8.80;99.90
54272;DHT22;40184;53.362;5.216;2023-02-12T10:45:42;9.00;99.90
54272;DHT22;40184;53.362;5.216;2023-02-12T10:48:32;8.70;99.90
54272;DHT22;40184;53.362;5.216;2023-02-12T10:53:44;9.00;99.90
54272;DHT22;40184;53.362;5.216;2023-02-12T10:56:20;9.10;99.90
54272;DHT22;40184;53.362;5.216;2023-02-12T10:58:53;9.20;99.90
54272;DHT22;40184;53.362;5.216;2023-02-12T11:01:32;9.30;99.90
54272;DHT22;40184;53.362;5.216;2023-02-12T11:04:27;8.70;99.90
54272;DHT22;40184;53.362;5.216;2023-02-12T11:07:04;8.80;99.90
54272;DHT22;40184;53.362;5.216;2023-02-12T11:09:45;9.00;99.90
54272;DHT22;40184;53.362;5.216;2023-02-12T11:12:40;9.40;99.90
54272;DHT22;40184;53.362;5.216;2023-02-12T11:15:17;9.40;99.90
54272;DHT22;40184;53.362;5.216;2023-02-12T11:18:07;9.40;99.90
54272;DHT22;40184;53.362;5.216;2023-02-12T11:20:40;9.30;99.90
54272;DHT22;40184;53.362;5.216;2023-02-12T11:25:57;9.50;99.90
54272;DHT22;40184;53.362;5.216;2023-02-12T11:28:23;9.20;99.90
54272;DHT22;40184;53.362;5.216;2023-02-12T11:30:55;9.40;99.90
54272;DHT22;40184;53.362;5.216;2023-02-12T11:36:18;9.30;99.90
54272;DHT22;40184;53.362;5.216;2023-02-12T11:38:52;9.20;99.90
54272;DHT22;40184;53.362;5.216;2023-02-12T11:43:59;9.40;99.90
54272;DHT22;40184;53.362;5.216;2023-02-12T11:46:26;9.60;99.90
54272;DHT22;40184;53.362;5.216;2023-02-12T11:48:54;9.10;99.90
54272;DHT22;40184;53.362;5.216;2023-02-12T11:51:25;9.10;99.90
54272;DHT22;40184;53.362;5.216;2023-02-12T11:53:53;9.70;99.90
54272;DHT22;40184;53.362;5.216;2023-02-12T11:56:20;9.20;99.90
54272;DHT22;40184;53.362;5.216;2023-02-12T11:58:47;9.60;99.90
54272;DHT22;40184;53.362;5.216;2023-02-12T12:04:02;9.10;99.90
54272;DHT22;40184;53.362;5.216;2023-02-12T12:09:32;9.60;99.90
54272;DHT22;40184;53.362;5.216;2023-02-12T12:12:16;9.70;99.90
54272;DHT22;40184;53.362;5.216;2023-02-12T12:14:53;9.70;99.90
54272;DHT22;40184;53.362;5.216;2023-02-12T12:17:51;9.40;99.90
54272;DHT22;40184;53.362;5.216;2023-02-12T12:20:48;9.40;99.90
54272;DHT22;40184;53.362;5.216;2023-02-12T12:24:19;10.00;99.90
54272;DHT22;40184;53.362;5.216;2023-02-12T12:27:07;10.00;99.90
54272;DHT22;40184;53.362;5.216;2023-02-12T12:30:00;9.40;99.90
54272;DHT22;40184;53.362;5.216;2023-02-12T12:32:33;9.50;99.90
54272;DHT22;40184;53.362;5.216;2023-02-12T12:35:01;9.40;99.90
54272;DHT22;40184;53.362;5.216;2023-02-12T12:43:40;9.60;99.90
54272;DHT22;40184;53.362;5.216;2023-02-12T12:46:30;9.40;99.90
54272;DHT22;40184;53.362;5.216;2023-02-12T12:54:22;9.70;99.90
54272;DHT22;40184;53.362;5.216;2023-02-12T13:08:43;9.50;99.90
54272;DHT22;40184;53.362;5.216;2023-02-12T13:11:36;9.90;99.90
54272;DHT22;40184;53.362;5.216;2023-02-12T13:19:36;9.40;99.90
54272;DHT22;40184;53.362;5.216;2023-02-12T13:22:13;9.90;99.90
54272;DHT22;40184;53.362;5.216;2023-02-12T13:24:53;9.50;99.90
54272;DHT22;40184;53.362;5.216;2023-02-12T13:27:30;9.30;99.90
54272;DHT22;40184;53.362;5.216;2023-02-12T13:32:56;9.30;99.90
54272;DHT22;40184;53.362;5.216;2023-02-12T13:35:24;9.20;99.90
54272;DHT22;40184;53.362;5.216;2023-02-12T13:37:54;9.80;99.90
54272;DHT22;40184;53.362;5.216;2023-02-12T13:40:23;9.20;99.90
54272;DHT22;40184;53.362;5.216;2023-02-12T13:43:39;9.50;99.90
54272;DHT22;40184;53.362;5.216;2023-02-12T13:46:03;9.40;99.90
54272;DHT22;40184;53.362;5.216;2023-02-12T13:57:02;9.10;99.90
54272;DHT22;40184;53.362;5.216;2023-02-12T14:02:27;9.50;99.90
54272;DHT22;40184;53.362;5.216;2023-02-12T14:07:58;9.30;99.90
54272;DHT22;40184;53.362;5.216;2023-02-12T14:10:30;9.80;99.90
54272;DHT22;40184;53.362;5.216;2023-02-12T14:15:40;9.10;99.90
54272;DHT22;40184;53.362;5.216;2023-02-12T14:18:31;9.10;99.90
54272;DHT22;40184;53.362;5.216;2023-02-12T14:23:45;9.10;99.90
54272;DHT22;40184;53.362;5.216;2023-02-12T14:26:16;9.10;99.90
54272;DHT22;40184;53.362;5.216;2023-02-12T14:28:53;9.30;99.90
54272;DHT22;40184;53.362;5.216;2023-02-12T14:41:51;8.90;99.90
54272;DHT22;40184;53.362;5.216;2023-02-12T14:46:50;8.90;99.90
54272;DHT22;40184;53.362;5.216;2023-02-12T14:49:29;9.00;99.90
54272;DHT22;40184;53.362;5.216;2023-02-12T14:54:44;9.30;99.90
54272;DHT22;40184;53.362;5.216;2023-02-12T14:57:39;9.40;99.90
54272;DHT22;40184;53.362;5.216;2023-02-12T15:00:39;8.80;99.90
54272;DHT22;40184;53.362;5.216;2023-02-12T15:05:44;9.00;99.90
54272;DHT22;40184;53.362;5.216;2023-02-12T15:08:25;8.90;99.90
54272;DHT22;40184;53.362;5.216;2023-02-12T15:10:56;9.20;99.90
54272;DHT22;40184;53.362;5.216;2023-02-12T15:13:29;9.10;99.90
54272;DHT22;40184;53.362;5.216;2023-02-12T15:16:01;8.70;99.90
54272;DHT22;40184;53.362;5.216;2023-02-12T15:21:26;9.20;99.90
54272;DHT22;40184;53.362;5.216;2023-02-12T15:24:05;8.70;99.90
54272;DHT22;40184;53.362;5.216;2023-02-12T15:26:44;8.80;99.90
54272;DHT22;40184;53.362;5.216;2023-02-12T15:29:40;8.70;99.90
54272;DHT22;40184;53.362;5.216;2023-02-12T15:32:08;8.90;99.90
54272;DHT22;40184;53.362;5.216;2023-02-12T15:34:36;9.20;99.90
54272;DHT22;40184;53.362;5.216;2023-02-12T15:37:04;8.70;99.90
54272;DHT22;40184;53.362;5.216;2023-02-12T15:39:43;8.60;99.90
54272;DHT22;40184;53.362;5.216;2023-02-12T15:42:29;8.50;99.90
54272;DHT22;40184;53.362;5.216;2023-02-12T15:45:23;8.50;99.90
54272;DHT22;40184;53.362;5.216;2023-02-12T15:48:02;8.80;99.90
54272;DHT22;40184;53.362;5.216;2023-02-12T15:50:30;8.50;99.90
54272;DHT22;40184;53.362;5.216;2023-02-12T15:52:57;8.60;99.90
54272;DHT22;40184;53.362;5.216;2023-02-12T15:55:25;8.50;99.90
54272;DHT22;40184;53.362;5.216;2023-02-12T15:57:58;8.40;99.90
54272;DHT22;40184;53.362;5.216;2023-02-12T16:00:41;9.00;99.90
54272;DHT22;40184;53.362;5.216;2023-02-12T16:03:29;8.90;99.90
54272;DHT22;40184;53.362;5.216;2023-02-12T16:06:07;9.00;99.90
54272;DHT22;40184;53.362;5.216;2023-02-12T16:08:43;8.40;99.90
54272;DHT22;40184;53.362;5.216;2023-02-12T16:11:12;8.40;99.90
54272;DHT22;40184;53.362;5.216;2023-02-12T16:18:38;8.40;99.90
54272;DHT22;40184;53.362;5.216;2023-02-12T16:21:24;8.90;99.90
54272;DHT22;40184;53.362;5.216;2023-02-12T16:23:50;8.60;99.90
54272;DHT22;40184;53.362;5.216;2023-02-12T16:26:21;8.80;99.90
54272;DHT22;40184;53.362;5.216;2023-02-12T16:28:53;8.40;99.90
54272;DHT22;40184;53.362;5.216;2023-02-12T16:31:19;8.30;99.90
54272;DHT22;40184;53.362;5.216;2023-02-12T16:33:48;8.40;99.90
54272;DHT22;40184;53.362;5.216;2023-02-12T16:41:27;8.50;99.90
54272;DHT22;40184;53.362;5.216;2023-02-12T16:46:50;8.40;99.90
54272;DHT22;40184;53.362;5.216;2023-02-12T16:49:19;8.40;99.90
54272;DHT22;40184;53.362;5.216;2023-02-12T16:51:46;8.70;99.90
54272;DHT22;40184;53.362;5.216;2023-02-12T16:54:31;8.40;99.90
54272;DHT22;40184;53.362;5.216;2023-02-12T16:56:58;8.60;99.90
54272;DHT22;40184;53.362;5.216;2023-02-12T16:59:24;8.30;99.90
54272;DHT22;40184;53.362;5.216;2023-02-12T17:02:02;8.70;99.90
54272;DHT22;40184;53.362;5.216;2023-02-12T17:04:28;8.40;99.90
54272;DHT22;40184;53.362;5.216;2023-02-12T17:06:54;8.70;99.90
54272;DHT22;40184;53.362;5.216;2023-02-12T17:09:21;8.30;99.90
54272;DHT22;40184;53.362;5.216;2023-02-12T17:11:46;8.40;99.90
54272;DHT22;40184;53.362;5.216;2023-02-12T17:14:19;8.00;99.90
54272;DHT22;40184;53.362;5.216;2023-02-12T17:16:45;8.70;99.90
54272;DHT22;40184;53.362;5.216;2023-02-12T17:19:11;8.30;99.90
54272;DHT22;40184;53.362;5.216;2023-02-12T17:21:39;8.30;99.90
54272;DHT22;40184;53.362;5.216;2023-02-12T17:24:21;8.70;99.90
54272;DHT22;40184;53.362;5.216;2023-02-12T17:26:48;8.60;99.90
54272;DHT22;40184;53.362;5.216;2023-02-12T17:29:16;8.40;99.90
54272;DHT22;40184;53.362;5.216;2023-02-12T17:31:41;8.20;99.90
54272;DHT22;40184;53.362;5.216;2023-02-12T17:34:07;8.30;99.90
54272;DHT22;40184;53.362;5.216;2023-02-12T17:36:33;8.10;99.90
54272;DHT22;40184;53.362;5.216;2023-02-12T17:38:59;8.40;99.90
54272;DHT22;40184;53.362;5.216;2023-02-12T17:41:27;8.60;99.90
54272;DHT22;40184;53.362;5.216;2023-02-12T17:43:52;8.10;99.90
54272;DHT22;40184;53.362;5.216;2023-02-12T17:46:22;8.00;99.90
54272;DHT22;40184;53.362;5.216;2023-02-12T17:48:48;8.00;99.90
54272;DHT22;40184;53.362;5.216;2023-02-12T17:51:14;8.40;99.90
54272;DHT22;40184;53.362;5.216;2023-02-12T17:53:40;8.60;99.90
54272;DHT22;40184;53.362;5.216;2023-02-12T17:56:14;8.10;99.90
54272;DHT22;40184;53.362;5.216;2023-02-12T17:58:41;8.10;99.90
54272;DHT22;40184;53.362;5.216;2023-02-12T18:01:10;8.50;99.90
54272;DHT22;40184;53.362;5.216;2023-02-12T18:03:36;8.40;99.90
54272;DHT22;40184;53.362;5.216;2023-02-12T18:06:02;8.30;99.90
54272;DHT22;40184;53.362;5.216;2023-02-12T18:08:29;8.20;99.90
54272;DHT22;40184;53.362;5.216;2023-02-12T18:10:55;8.50;99.90
54272;DHT22;40184;53.362;5.216;2023-02-12T18:13:21;8.00;99.90
54272;DHT22;40184;53.362;5.216;2023-02-12T18:15:46;8.20;99.90
54272;DHT22;40184;53.362;5.216;2023-02-12T18:18:12;8.50;99.90
54272;DHT22;40184;53.362;5.216;2023-02-12T18:20:39;8.30;99.90
54272;DHT22;40184;53.362;5.216;2023-02-12T18:23:05;7.90;99.90
54272;DHT22;40184;53.362;5.216;2023-02-12T18:25:33;8.50;99.90
54272;DHT22;40184;53.362;5.216;2023-02-12T18:27:59;7.90;99.90
54272;DHT22;40184;53.362;5.216;2023-02-12T18:30:26;8.10;99.90
54272;DHT22;40184;53.362;5.216;2023-02-12T18:32:52;8.40;99.90
54272;DHT22;40184;53.362;5.216;2023-02-12T18:35:18;8.40;99.90
54272;DHT22;40184;53.362;5.216;2023-02-12T18:37:44;7.90;99.90
54272;DHT22;40184;53.362;5.216;2023-02-12T18:40:11;8.30;99.90
54272;DHT22;40184;53.362;5.216;2023-02-12T18:42:37;8.30;99.90
54272;DHT22;40184;53.362;5.216;2023-02-12T18:45:03;8.20;99.90
54272;DHT22;40184;53.362;5.216;2023-02-12T18:47:29;8.30;99.90
54272;DHT22;40184;53.362;5.216;2023-02-12T18:49:55;8.50;99.90
54272;DHT22;40184;53.362;5.216;2023-02-12T18:52:22;7.90;99.90
54272;DHT22;40184;53.362;5.216;2023-02-12T18:54:48;8.10;99.90
54272;DHT22;40184;53.362;5.216;2023-02-12T18:57:14;8.00;99.90
54272;DHT22;40184;53.362;5.216;2023-02-12T18:59:40;8.20;99.90
54272;DHT22;40184;53.362;5.216;2023-02-12T19:02:06;8.30;99.90
54272;DHT22;40184;53.362;5.216;2023-02-12T19:04:32;8.50;99.90